sensor_id;sensor_type;location;lat;lon;timestamp;temperature;humidity
48488;DHT22;34289;48.572;13.378;2022-12-22T00:02:20;0.90;99.90
48488;DHT22;34289;48.572;13.378;2022-12-22T00:05:15;0.80;99.90
48488;DHT22;34289;48.572;13.378;2022-12-22T00:07:59;0.80;99.90
48488;DHT22;34289;48.572;13.378;2022-12-22T00:10:43;0.80;99.90
48488;DHT22;34289;48.572;13.378;2022-12-22T00:13:27;0.90;99.90
48488;DHT22;34289;48.572;13.378;2022-12-22T00:16:11;1.00;99.90
48488;DHT22;34289;48.572;13.378;2022-12-22T00:18:55;1.00;99.90
48488;DHT22;34289;48.572;13.378;2022-12-22T00:21:40;0.90;99.90
48488;DHT22;34289;48.572;13.378;2022-12-22T00:24:24;0.80;99.90
48488;DHT22;34289;48.572;13.378;2022-12-22T00:27:18;0.90;99.90
48488;DHT22;34289;48.572;13.378;2022-12-22T00:30:11;0.90;99.90
48488;DHT22;34289;48.572;13.378;2022-12-22T00:32:56;0.90;99.90
48488;DHT22;34289;48.572;13.378;2022-12-22T00:35:41;1.00;99.90
48488;DHT22;34289;48.572;13.378;2022-12-22T00:38:27;1.00;99.90
48488;DHT22;34289;48.572;13.378;2022-12-22T00:41:11;1.10;99.90
48488;DHT22;34289;48.572;13.378;2022-12-22T00:43:55;1.10;99.90
48488;DHT22;34289;48.572;13.378;2022-12-22T00:46:41;1.00;99.90
48488;DHT22;34289;48.572;13.378;2022-12-22T00:49:27;1.00;99.90
48488;DHT22;34289;48.572;13.378;2022-12-22T00:52:12;0.90;99.90
48488;DHT22;34289;48.572;13.378;2022-12-22T00:54:56;0.80;99.90
48488;DHT22;34289;48.572;13.378;2022-12-22T00:57:42;0.80;99.90
48488;DHT22;34289;48.572;13.378;2022-12-22T01:00:27;0.80;99.90
48488;DHT22;34289;48.572;13.378;2022-12-22T01:03:11;0.80;99.90
48488;DHT22;34289;48.572;13.378;2022-12-22T01:05:58;0.90;99.90
48488;DHT22;34289;48.572;13.378;2022-12-22T01:08:44;1.40;99.90
48488;DHT22;34289;48.572;13.378;2022-12-22T01:11:29;0.90;99.90
48488;DHT22;34289;48.572;13.378;2022-12-22T01:14:14;0.90;99.90
48488;DHT22;34289;48.572;13.378;2022-12-22T01:16:59;0.80;99.90
48488;DHT22;34289;48.572;13.378;2022-12-22T01:19:44;0.80;99.90
48488;DHT22;34289;48.572;13.378;2022-12-22T01:22:28;0.70;99.90
48488;DHT22;34289;48.572;13.378;2022-12-22T01:25:18;0.70;99.90
48488;DHT22;34289;48.572;13.378;2022-12-22T01:28:03;0.60;99.90
48488;DHT22;34289;48.572;13.378;2022-12-22T01:30:47;0.70;99.90
48488;DHT22;34289;48.572;13.378;2022-12-22T01:33:31;0.60;99.90
48488;DHT22;34289;48.572;13.378;2022-12-22T01:36:15;0.60;99.90
48488;DHT22;34289;48.572;13.378;2022-12-22T01:39:00;0.70;99.90
48488;DHT22;34289;48.572;13.378;2022-12-22T01:41:45;0.40;99.90
48488;DHT22;34289;48.572;13.378;2022-12-22T01:44:30;0.20;99.90
48488;DHT22;34289;48.572;13.378;2022-12-22T01:50:21;0.20;99.90
48488;DHT22;34289;48.572;13.378;2022-12-22T01:53:11;0.30;99.90
48488;DHT22;34289;48.572;13.378;2022-12-22T01:55:56;0.40;99.90
48488;DHT22;34289;48.572;13.378;2022-12-22T01:58:44;0.30;99.90
48488;DHT22;34289;48.572;13.378;2022-12-22T02:01:30;0.30;99.90
48488;DHT22;34289;48.572;13.378;2022-12-22T02:04:16;0.70;99.90
48488;DHT22;34289;48.572;13.378;2022-12-22T02:07:51;0.50;99.90
48488;DHT22;34289;48.572;13.378;2022-12-22T02:13:38;0.50;99.90
48488;DHT22;34289;48.572;13.378;2022-12-22T02:25:41;0.60;99.90
48488;DHT22;34289;48.572;13.378;2022-12-22T02:28:26;0.50;99.90
48488;DHT22;34289;48.572;13.378;2022-12-22T02:31:10;0.30;99.90
48488;DHT22;34289;48.572;13.378;2022-12-22T02:33:54;0.30;99.90
48488;DHT22;34289;48.572;13.378;2022-12-22T02:39:50;0.30;99.90
48488;DHT22;34289;48.572;13.378;2022-12-22T02:42:56;0.30;99.90
48488;DHT22;34289;48.572;13.378;2022-12-22T02:49:09;0.20;99.90
48488;DHT22;34289;48.572;13.378;2022-12-22T02:52:04;0.20;99.90
48488;DHT22;34289;48.572;13.378;2022-12-22T02:54:50;0.20;99.90
48488;DHT22;34289;48.572;13.378;2022-12-22T02:57:34;1.10;99.90
48488;DHT22;34289;48.572;13.378;2022-12-22T03:00:18;0.30;99.90
48488;DHT22;34289;48.572;13.378;2022-12-22T03:03:02;0.30;99.90
48488;DHT22;34289;48.572;13.378;2022-12-22T03:05:49;0.40;99.90
48488;DHT22;34289;48.572;13.378;2022-12-22T03:08:37;0.30;99.90
48488;DHT22;34289;48.572;13.378;2022-12-22T03:11:21;0.40;99.90
48488;DHT22;34289;48.572;13.378;2022-12-22T03:14:05;0.40;99.90
48488;DHT22;34289;48.572;13.378;2022-12-22T03:16:49;0.40;99.90
48488;DHT22;34289;48.572;13.378;2022-12-22T03:19:33;0.40;99.90
48488;DHT22;34289;48.572;13.378;2022-12-22T03:22:17;0.30;99.90
48488;DHT22;34289;48.572;13.378;2022-12-22T03:25:01;0.30;99.90
48488;DHT22;34289;48.572;13.378;2022-12-22T03:27:45;0.30;99.90
48488;DHT22;34289;48.572;13.378;2022-12-22T03:30:11;0.40;99.90
48488;DHT22;34289;48.572;13.378;2022-12-22T03:32:36;0.30;99.90
48488;DHT22;34289;48.572;13.378;2022-12-22T03:35:02;0.40;99.90
48488;DHT22;34289;48.572;13.378;2022-12-22T03:37:28;0.50;99.90
48488;DHT22;34289;48.572;13.378;2022-12-22T03:39:53;0.50;99.90
48488;DHT22;34289;48.572;13.378;2022-12-22T03:42:19;0.40;99.90
48488;DHT22;34289;48.572;13.378;2022-12-22T03:45:04;0.40;99.90
48488;DHT22;34289;48.572;13.378;2022-12-22T03:47:48;0.50;99.90
48488;DHT22;34289;48.572;13.378;2022-12-22T03:50:13;0.40;99.90
48488;DHT22;34289;48.572;13.378;2022-12-22T03:52:39;0.50;99.90
48488;DHT22;34289;48.572;13.378;2022-12-22T03:55:05;0.50;99.90
48488;DHT22;34289;48.572;13.378;2022-12-22T03:57:31;0.50;99.90
48488;DHT22;34289;48.572;13.378;2022-12-22T03:59:56;0.50;99.90
48488;DHT22;34289;48.572;13.378;2022-12-22T04:02:22;0.50;99.90
48488;DHT22;34289;48.572;13.378;2022-12-22T04:04:47;0.50;99.90
48488;DHT22;34289;48.572;13.378;2022-12-22T04:07:13;0.50;99.90
48488;DHT22;34289;48.572;13.378;2022-12-22T04:09:38;0.40;99.90
48488;DHT22;34289;48.572;13.378;2022-12-22T04:12:24;0.50;99.90
48488;DHT22;34289;48.572;13.378;2022-12-22T04:15:08;1.70;99.90
48488;DHT22;34289;48.572;13.378;2022-12-22T04:17:34;0.40;99.90
48488;DHT22;34289;48.572;13.378;2022-12-22T04:20:00;0.40;99.90
48488;DHT22;34289;48.572;13.378;2022-12-22T04:22:25;0.40;99.90
48488;DHT22;34289;48.572;13.378;2022-12-22T04:24:51;0.50;99.90
48488;DHT22;34289;48.572;13.378;2022-12-22T04:27:16;0.50;99.90
48488;DHT22;34289;48.572;13.378;2022-12-22T04:29:42;0.50;99.90
48488;DHT22;34289;48.572;13.378;2022-12-22T04:32:08;0.50;99.90
48488;DHT22;34289;48.572;13.378;2022-12-22T04:34:34;0.50;99.90
48488;DHT22;34289;48.572;13.378;2022-12-22T04:36:59;0.40;99.90
48488;DHT22;34289;48.572;13.378;2022-12-22T04:39:25;0.50;99.90
48488;DHT22;34289;48.572;13.378;2022-12-22T04:41:50;0.70;99.90
48488;DHT22;34289;48.572;13.378;2022-12-22T04:44:16;0.70;99.90
48488;DHT22;34289;48.572;13.378;2022-12-22T04:46:41;0.60;99.90
48488;DHT22;34289;48.572;13.378;2022-12-22T04:49:07;1.30;99.90
48488;DHT22;34289;48.572;13.378;2022-12-22T04:51:33;0.80;99.90
48488;DHT22;34289;48.572;13.378;2022-12-22T04:53:58;0.70;99.90
48488;DHT22;34289;48.572;13.378;2022-12-22T04:56:24;0.80;99.90
48488;DHT22;34289;48.572;13.378;2022-12-22T04:58:49;0.80;99.90
48488;DHT22;34289;48.572;13.378;2022-12-22T05:01:16;0.80;99.90
48488;DHT22;34289;48.572;13.378;2022-12-22T05:03:42;0.70;99.90
48488;DHT22;34289;48.572;13.378;2022-12-22T05:06:09;0.70;99.90
48488;DHT22;34289;48.572;13.378;2022-12-22T05:08:34;0.80;99.90
48488;DHT22;34289;48.572;13.378;2022-12-22T05:11:00;0.80;99.90
48488;DHT22;34289;48.572;13.378;2022-12-22T05:13:27;0.80;99.90
48488;DHT22;34289;48.572;13.378;2022-12-22T05:15:53;0.80;99.90
48488;DHT22;34289;48.572;13.378;2022-12-22T05:18:18;0.80;99.90
48488;DHT22;34289;48.572;13.378;2022-12-22T05:20:44;0.70;99.90
48488;DHT22;34289;48.572;13.378;2022-12-22T05:23:10;0.70;99.90
48488;DHT22;34289;48.572;13.378;2022-12-22T05:25:35;0.70;99.90
48488;DHT22;34289;48.572;13.378;2022-12-22T05:28:01;0.80;99.90
48488;DHT22;34289;48.572;13.378;2022-12-22T05:30:27;0.90;99.90
48488;DHT22;34289;48.572;13.378;2022-12-22T05:32:52;0.90;99.90
48488;DHT22;34289;48.572;13.378;2022-12-22T05:35:18;0.90;99.90
48488;DHT22;34289;48.572;13.378;2022-12-22T05:37:43;0.90;99.90
48488;DHT22;34289;48.572;13.378;2022-12-22T05:40:10;0.90;99.90
48488;DHT22;34289;48.572;13.378;2022-12-22T05:42:36;1.00;99.90
48488;DHT22;34289;48.572;13.378;2022-12-22T05:45:11;1.00;99.90
48488;DHT22;34289;48.572;13.378;2022-12-22T05:47:38;1.00;99.90
48488;DHT22;34289;48.572;13.378;2022-12-22T05:50:05;1.00;99.90
48488;DHT22;34289;48.572;13.378;2022-12-22T05:52:30;1.00;99.90
48488;DHT22;34289;48.572;13.378;2022-12-22T05:54:56;1.00;99.90
48488;DHT22;34289;48.572;13.378;2022-12-22T05:57:22;1.10;99.90
48488;DHT22;34289;48.572;13.378;2022-12-22T05:59:47;1.10;99.90
48488;DHT22;34289;48.572;13.378;2022-12-22T06:02:13;1.10;99.90
48488;DHT22;34289;48.572;13.378;2022-12-22T06:04:39;1.00;99.90
48488;DHT22;34289;48.572;13.378;2022-12-22T06:07:04;1.00;99.90
48488;DHT22;34289;48.572;13.378;2022-12-22T06:09:30;1.00;99.90
48488;DHT22;34289;48.572;13.378;2022-12-22T06:11:56;1.00;99.90
48488;DHT22;34289;48.572;13.378;2022-12-22T06:14:21;1.00;99.90
48488;DHT22;34289;48.572;13.378;2022-12-22T06:16:47;1.00;99.90
48488;DHT22;34289;48.572;13.378;2022-12-22T06:19:12;0.90;99.90
48488;DHT22;34289;48.572;13.378;2022-12-22T06:21:38;0.90;99.90
48488;DHT22;34289;48.572;13.378;2022-12-22T06:24:04;1.00;99.90
48488;DHT22;34289;48.572;13.378;2022-12-22T06:26:30;1.00;99.90
48488;DHT22;34289;48.572;13.378;2022-12-22T06:28:56;1.00;99.90
48488;DHT22;34289;48.572;13.378;2022-12-22T06:31:22;0.90;99.90
48488;DHT22;34289;48.572;13.378;2022-12-22T06:33:48;0.80;99.90
48488;DHT22;34289;48.572;13.378;2022-12-22T06:36:14;0.80;99.90
48488;DHT22;34289;48.572;13.378;2022-12-22T06:38:39;0.80;99.90
48488;DHT22;34289;48.572;13.378;2022-12-22T06:41:05;0.90;99.90
48488;DHT22;34289;48.572;13.378;2022-12-22T06:43:30;1.00;99.90
48488;DHT22;34289;48.572;13.378;2022-12-22T06:45:59;1.40;99.90
48488;DHT22;34289;48.572;13.378;2022-12-22T06:48:24;1.20;99.90
48488;DHT22;34289;48.572;13.378;2022-12-22T06:50:57;1.10;99.90
48488;DHT22;34289;48.572;13.378;2022-12-22T06:53:23;1.10;99.90
48488;DHT22;34289;48.572;13.378;2022-12-22T06:55:49;1.20;99.90
48488;DHT22;34289;48.572;13.378;2022-12-22T06:58:14;1.30;99.90
48488;DHT22;34289;48.572;13.378;2022-12-22T07:00:40;1.30;99.90
48488;DHT22;34289;48.572;13.378;2022-12-22T07:03:05;2.00;99.90
48488;DHT22;34289;48.572;13.378;2022-12-22T07:05:34;1.30;99.90
48488;DHT22;34289;48.572;13.378;2022-12-22T07:08:00;2.50;99.90
48488;DHT22;34289;48.572;13.378;2022-12-22T07:10:25;1.10;99.90
48488;DHT22;34289;48.572;13.378;2022-12-22T07:13:09;1.10;99.90
48488;DHT22;34289;48.572;13.378;2022-12-22T07:15:45;1.20;99.90
48488;DHT22;34289;48.572;13.378;2022-12-22T07:18:11;1.30;99.90
48488;DHT22;34289;48.572;13.378;2022-12-22T07:20:37;1.40;99.90
48488;DHT22;34289;48.572;13.378;2022-12-22T07:23:02;1.40;99.90
48488;DHT22;34289;48.572;13.378;2022-12-22T07:25:28;2.50;99.90
48488;DHT22;34289;48.572;13.378;2022-12-22T07:27:53;1.40;99.90
48488;DHT22;34289;48.572;13.378;2022-12-22T07:30:19;1.50;99.90
48488;DHT22;34289;48.572;13.378;2022-12-22T07:32:45;1.40;99.90
48488;DHT22;34289;48.572;13.378;2022-12-22T07:35:10;1.30;99.90
48488;DHT22;34289;48.572;13.378;2022-12-22T07:37:36;1.30;99.90
48488;DHT22;34289;48.572;13.378;2022-12-22T07:40:01;1.40;99.90
48488;DHT22;34289;48.572;13.378;2022-12-22T07:42:27;1.20;99.90
48488;DHT22;34289;48.572;13.378;2022-12-22T07:45:15;1.70;99.90
48488;DHT22;34289;48.572;13.378;2022-12-22T07:47:41;1.40;99.90
48488;DHT22;34289;48.572;13.378;2022-12-22T07:50:11;1.40;99.90
48488;DHT22;34289;48.572;13.378;2022-12-22T07:52:54;1.40;99.90
48488;DHT22;34289;48.572;13.378;2022-12-22T07:55:24;1.60;99.90
48488;DHT22;34289;48.572;13.378;2022-12-22T07:57:51;1.50;99.90
48488;DHT22;34289;48.572;13.378;2022-12-22T08:00:18;1.60;99.90
48488;DHT22;34289;48.572;13.378;2022-12-22T08:02:54;1.80;99.90
48488;DHT22;34289;48.572;13.378;2022-12-22T08:05:21;1.90;99.90
48488;DHT22;34289;48.572;13.378;2022-12-22T08:07:48;2.00;99.90
48488;DHT22;34289;48.572;13.378;2022-12-22T08:10:15;2.00;99.90
48488;DHT22;34289;48.572;13.378;2022-12-22T08:12:40;2.10;99.90
48488;DHT22;34289;48.572;13.378;2022-12-22T08:15:07;2.00;99.90
48488;DHT22;34289;48.572;13.378;2022-12-22T08:17:34;2.00;99.90
48488;DHT22;34289;48.572;13.378;2022-12-22T08:20:00;2.00;99.90
48488;DHT22;34289;48.572;13.378;2022-12-22T08:22:25;1.90;99.90
48488;DHT22;34289;48.572;13.378;2022-12-22T08:24:55;2.00;99.90
48488;DHT22;34289;48.572;13.378;2022-12-22T08:27:28;2.10;99.90
48488;DHT22;34289;48.572;13.378;2022-12-22T08:30:03;2.70;99.90
48488;DHT22;34289;48.572;13.378;2022-12-22T08:32:29;2.00;99.90
48488;DHT22;34289;48.572;13.378;2022-12-22T08:34:57;2.10;99.90
48488;DHT22;34289;48.572;13.378;2022-12-22T08:37:24;2.20;99.90
48488;DHT22;34289;48.572;13.378;2022-12-22T08:39:55;2.20;99.90
48488;DHT22;34289;48.572;13.378;2022-12-22T08:42:23;2.30;99.90
48488;DHT22;34289;48.572;13.378;2022-12-22T08:44:50;2.30;99.90
48488;DHT22;34289;48.572;13.378;2022-12-22T08:47:19;3.00;99.90
48488;DHT22;34289;48.572;13.378;2022-12-22T08:49:45;3.00;99.90
48488;DHT22;34289;48.572;13.378;2022-12-22T08:52:10;3.50;99.90
48488;DHT22;34289;48.572;13.378;2022-12-22T08:54:36;4.00;99.90
48488;DHT22;34289;48.572;13.378;2022-12-22T08:57:02;3.90;99.90
48488;DHT22;34289;48.572;13.378;2022-12-22T08:59:27;4.00;99.90
48488;DHT22;34289;48.572;13.378;2022-12-22T09:01:53;4.80;99.90
48488;DHT22;34289;48.572;13.378;2022-12-22T09:04:20;5.60;99.90
48488;DHT22;34289;48.572;13.378;2022-12-22T09:06:46;6.90;99.90
48488;DHT22;34289;48.572;13.378;2022-12-22T09:09:14;7.30;99.90
48488;DHT22;34289;48.572;13.378;2022-12-22T09:11:40;6.50;99.90
48488;DHT22;34289;48.572;13.378;2022-12-22T09:14:07;5.70;99.90
48488;DHT22;34289;48.572;13.378;2022-12-22T09:16:33;5.90;99.90
48488;DHT22;34289;48.572;13.378;2022-12-22T09:19:00;5.00;99.90
48488;DHT22;34289;48.572;13.378;2022-12-22T09:21:26;4.60;99.90
48488;DHT22;34289;48.572;13.378;2022-12-22T09:23:53;4.40;99.90
48488;DHT22;34289;48.572;13.378;2022-12-22T09:26:20;4.40;99.90
48488;DHT22;34289;48.572;13.378;2022-12-22T09:28:47;4.90;99.90
48488;DHT22;34289;48.572;13.378;2022-12-22T09:31:16;4.60;99.90
48488;DHT22;34289;48.572;13.378;2022-12-22T09:33:42;4.80;99.90
48488;DHT22;34289;48.572;13.378;2022-12-22T09:36:09;5.20;99.90
48488;DHT22;34289;48.572;13.378;2022-12-22T09:38:39;4.30;99.90
48488;DHT22;34289;48.572;13.378;2022-12-22T09:41:14;4.40;99.90
48488;DHT22;34289;48.572;13.378;2022-12-22T09:43:40;4.10;99.90
48488;DHT22;34289;48.572;13.378;2022-12-22T09:46:23;4.10;99.90
48488;DHT22;34289;48.572;13.378;2022-12-22T09:48:51;4.20;99.90
48488;DHT22;34289;48.572;13.378;2022-12-22T09:51:18;4.50;99.90
48488;DHT22;34289;48.572;13.378;2022-12-22T09:53:46;5.20;99.90
48488;DHT22;34289;48.572;13.378;2022-12-22T09:56:15;6.00;99.90
48488;DHT22;34289;48.572;13.378;2022-12-22T09:58:41;6.60;99.90
48488;DHT22;34289;48.572;13.378;2022-12-22T10:06:42;6.50;99.90
48488;DHT22;34289;48.572;13.378;2022-12-22T10:09:24;6.30;99.90
48488;DHT22;34289;48.572;13.378;2022-12-22T10:11:59;5.40;99.90
48488;DHT22;34289;48.572;13.378;2022-12-22T10:14:37;5.50;99.90
48488;DHT22;34289;48.572;13.378;2022-12-22T10:17:27;5.70;99.90
48488;DHT22;34289;48.572;13.378;2022-12-22T10:25:34;5.30;99.90
48488;DHT22;34289;48.572;13.378;2022-12-22T10:28:03;5.20;99.90
48488;DHT22;34289;48.572;13.378;2022-12-22T10:30:32;5.90;99.90
48488;DHT22;34289;48.572;13.378;2022-12-22T10:33:08;7.90;99.90
48488;DHT22;34289;48.572;13.378;2022-12-22T10:35:50;9.80;99.90
48488;DHT22;34289;48.572;13.378;2022-12-22T10:38:32;11.70;99.90
48488;DHT22;34289;48.572;13.378;2022-12-22T10:41:13;10.90;99.90
48488;DHT22;34289;48.572;13.378;2022-12-22T10:44:03;9.30;99.90
48488;DHT22;34289;48.572;13.378;2022-12-22T10:51:39;6.20;99.90
48488;DHT22;34289;48.572;13.378;2022-12-22T10:54:05;5.70;99.90
48488;DHT22;34289;48.572;13.378;2022-12-22T10:56:32;5.10;99.90
48488;DHT22;34289;48.572;13.378;2022-12-22T11:01:32;5.20;99.90
48488;DHT22;34289;48.572;13.378;2022-12-22T11:04:14;4.60;99.90
48488;DHT22;34289;48.572;13.378;2022-12-22T11:06:41;4.40;99.90
48488;DHT22;34289;48.572;13.378;2022-12-22T11:09:09;4.60;99.90
48488;DHT22;34289;48.572;13.378;2022-12-22T11:17:02;4.10;99.90
48488;DHT22;34289;48.572;13.378;2022-12-22T11:30:39;4.30;99.90
48488;DHT22;34289;48.572;13.378;2022-12-22T11:36:22;4.50;99.90
48488;DHT22;34289;48.572;13.378;2022-12-22T11:41:30;5.90;99.90
48488;DHT22;34289;48.572;13.378;2022-12-22T11:49:12;5.10;99.90
48488;DHT22;34289;48.572;13.378;2022-12-22T11:59:46;5.10;99.90
48488;DHT22;34289;48.572;13.378;2022-12-22T12:05:20;4.40;99.90
48488;DHT22;34289;48.572;13.378;2022-12-22T12:10:49;4.30;99.90
48488;DHT22;34289;48.572;13.378;2022-12-22T12:14:13;4.50;99.90
48488;DHT22;34289;48.572;13.378;2022-12-22T12:21:53;5.10;99.90
48488;DHT22;34289;48.572;13.378;2022-12-22T12:30:16;5.30;99.90
48488;DHT22;34289;48.572;13.378;2022-12-22T12:33:06;5.60;99.90
48488;DHT22;34289;48.572;13.378;2022-12-22T12:35:34;5.40;99.90
48488;DHT22;34289;48.572;13.378;2022-12-22T12:38:25;5.20;99.90
48488;DHT22;34289;48.572;13.378;2022-12-22T12:41:15;5.20;99.90
48488;DHT22;34289;48.572;13.378;2022-12-22T12:43:44;5.20;99.90
48488;DHT22;34289;48.572;13.378;2022-12-22T12:49:02;5.00;99.90
48488;DHT22;34289;48.572;13.378;2022-12-22T12:51:47;5.10;99.90
48488;DHT22;34289;48.572;13.378;2022-12-22T12:57:09;4.60;99.90
48488;DHT22;34289;48.572;13.378;2022-12-22T13:05:52;4.30;99.90
48488;DHT22;34289;48.572;13.378;2022-12-22T13:23:39;6.00;99.90
48488;DHT22;34289;48.572;13.378;2022-12-22T13:28:36;6.20;99.90
48488;DHT22;34289;48.572;13.378;2022-12-22T13:31:12;6.40;99.90
48488;DHT22;34289;48.572;13.378;2022-12-22T13:33:41;6.50;99.90
48488;DHT22;34289;48.572;13.378;2022-12-22T13:36:16;6.60;99.90
48488;DHT22;34289;48.572;13.378;2022-12-22T13:38:43;7.40;99.90
48488;DHT22;34289;48.572;13.378;2022-12-22T13:41:16;6.70;99.90
48488;DHT22;34289;48.572;13.378;2022-12-22T13:43:46;6.70;99.90
48488;DHT22;34289;48.572;13.378;2022-12-22T13:46:13;6.90;99.90
48488;DHT22;34289;48.572;13.378;2022-12-22T13:48:41;6.70;99.90
48488;DHT22;34289;48.572;13.378;2022-12-22T13:51:21;6.70;99.90
48488;DHT22;34289;48.572;13.378;2022-12-22T13:53:56;6.70;99.90
48488;DHT22;34289;48.572;13.378;2022-12-22T13:56:27;6.70;99.90
48488;DHT22;34289;48.572;13.378;2022-12-22T13:58:59;6.70;99.90
48488;DHT22;34289;48.572;13.378;2022-12-22T14:01:26;7.50;99.90
48488;DHT22;34289;48.572;13.378;2022-12-22T14:04:00;6.90;99.90
48488;DHT22;34289;48.572;13.378;2022-12-22T14:06:38;6.80;99.90
48488;DHT22;34289;48.572;13.378;2022-12-22T14:09:15;6.70;99.90
48488;DHT22;34289;48.572;13.378;2022-12-22T14:11:43;6.90;99.90
48488;DHT22;34289;48.572;13.378;2022-12-22T14:14:15;6.70;99.90
48488;DHT22;34289;48.572;13.378;2022-12-22T14:16:44;6.80;99.90
48488;DHT22;34289;48.572;13.378;2022-12-22T14:19:16;6.80;99.90
48488;DHT22;34289;48.572;13.378;2022-12-22T14:21:44;6.80;99.90
48488;DHT22;34289;48.572;13.378;2022-12-22T14:24:18;6.70;99.90
48488;DHT22;34289;48.572;13.378;2022-12-22T14:26:45;6.70;99.90
48488;DHT22;34289;48.572;13.378;2022-12-22T14:29:17;6.80;99.90
48488;DHT22;34289;48.572;13.378;2022-12-22T14:31:57;6.90;99.90
48488;DHT22;34289;48.572;13.378;2022-12-22T14:34:28;6.90;99.90
48488;DHT22;34289;48.572;13.378;2022-12-22T14:36:54;7.40;99.90
48488;DHT22;34289;48.572;13.378;2022-12-22T14:39:26;7.40;99.90
48488;DHT22;34289;48.572;13.378;2022-12-22T14:41:54;6.80;99.90
48488;DHT22;34289;48.572;13.378;2022-12-22T14:44:33;7.00;99.90
48488;DHT22;34289;48.572;13.378;2022-12-22T14:50:01;6.80;99.90
48488;DHT22;34289;48.572;13.378;2022-12-22T14:52:58;6.90;99.90
48488;DHT22;34289;48.572;13.378;2022-12-22T14:55:28;6.80;99.90
48488;DHT22;34289;48.572;13.378;2022-12-22T14:58:04;6.70;99.90
48488;DHT22;34289;48.572;13.378;2022-12-22T15:00:40;6.50;99.90
48488;DHT22;34289;48.572;13.378;2022-12-22T15:08:53;6.10;99.90
48488;DHT22;34289;48.572;13.378;2022-12-22T15:11:38;6.00;99.90
48488;DHT22;34289;48.572;13.378;2022-12-22T15:14:04;5.90;99.90
48488;DHT22;34289;48.572;13.378;2022-12-22T15:16:30;5.80;99.90
48488;DHT22;34289;48.572;13.378;2022-12-22T15:18:56;6.50;99.90
48488;DHT22;34289;48.572;13.378;2022-12-22T15:21:22;5.70;99.90
48488;DHT22;34289;48.572;13.378;2022-12-22T15:23:47;5.60;99.90
48488;DHT22;34289;48.572;13.378;2022-12-22T15:26:13;5.70;99.90
48488;DHT22;34289;48.572;13.378;2022-12-22T15:28:39;5.80;99.90
48488;DHT22;34289;48.572;13.378;2022-12-22T15:31:11;5.90;99.90
48488;DHT22;34289;48.572;13.378;2022-12-22T15:33:38;5.90;99.90
48488;DHT22;34289;48.572;13.378;2022-12-22T15:36:05;6.00;99.90
48488;DHT22;34289;48.572;13.378;2022-12-22T15:38:31;6.00;99.90
48488;DHT22;34289;48.572;13.378;2022-12-22T15:40:56;6.00;99.90
48488;DHT22;34289;48.572;13.378;2022-12-22T15:43:22;6.00;99.90
48488;DHT22;34289;48.572;13.378;2022-12-22T15:45:47;6.10;99.90
48488;DHT22;34289;48.572;13.378;2022-12-22T15:48:29;6.10;99.90
48488;DHT22;34289;48.572;13.378;2022-12-22T15:50:55;6.10;99.90
48488;DHT22;34289;48.572;13.378;2022-12-22T15:53:21;6.00;99.90
48488;DHT22;34289;48.572;13.378;2022-12-22T15:55:52;6.00;99.90
48488;DHT22;34289;48.572;13.378;2022-12-22T15:58:23;6.00;99.90
48488;DHT22;34289;48.572;13.378;2022-12-22T16:00:49;5.90;99.90
48488;DHT22;34289;48.572;13.378;2022-12-22T16:03:14;5.80;99.90
48488;DHT22;34289;48.572;13.378;2022-12-22T16:05:40;5.80;99.90
48488;DHT22;34289;48.572;13.378;2022-12-22T16:08:13;5.80;99.90
48488;DHT22;34289;48.572;13.378;2022-12-22T16:10:40;6.80;99.90
48488;DHT22;34289;48.572;13.378;2022-12-22T16:13:11;6.20;99.90
48488;DHT22;34289;48.572;13.378;2022-12-22T16:15:37;5.90;99.90
48488;DHT22;34289;48.572;13.378;2022-12-22T16:18:03;5.70;99.90
48488;DHT22;34289;48.572;13.378;2022-12-22T16:20:34;5.60;99.90
48488;DHT22;34289;48.572;13.378;2022-12-22T16:23:01;5.50;99.90
48488;DHT22;34289;48.572;13.378;2022-12-22T16:25:32;5.90;99.90
48488;DHT22;34289;48.572;13.378;2022-12-22T16:28:00;5.20;99.90
48488;DHT22;34289;48.572;13.378;2022-12-22T16:30:27;5.00;99.90
48488;DHT22;34289;48.572;13.378;2022-12-22T16:32:53;4.90;99.90
48488;DHT22;34289;48.572;13.378;2022-12-22T16:35:25;6.20;99.90
48488;DHT22;34289;48.572;13.378;2022-12-22T16:37:54;4.90;99.90
48488;DHT22;34289;48.572;13.378;2022-12-22T16:40:19;4.90;99.90
48488;DHT22;34289;48.572;13.378;2022-12-22T16:42:56;4.80;99.90
48488;DHT22;34289;48.572;13.378;2022-12-22T16:45:26;4.90;99.90
48488;DHT22;34289;48.572;13.378;2022-12-22T16:47:56;4.80;99.90
48488;DHT22;34289;48.572;13.378;2022-12-22T16:50:26;4.70;99.90
48488;DHT22;34289;48.572;13.378;2022-12-22T16:53:02;4.60;99.90
48488;DHT22;34289;48.572;13.378;2022-12-22T16:55:29;4.60;99.90
48488;DHT22;34289;48.572;13.378;2022-12-22T16:57:55;4.60;99.90
48488;DHT22;34289;48.572;13.378;2022-12-22T17:00:23;4.60;99.90
48488;DHT22;34289;48.572;13.378;2022-12-22T17:02:52;4.70;99.90
48488;DHT22;34289;48.572;13.378;2022-12-22T17:05:50;4.50;99.90
48488;DHT22;34289;48.572;13.378;2022-12-22T17:08:37;4.30;99.90
48488;DHT22;34289;48.572;13.378;2022-12-22T17:11:07;4.20;99.90
48488;DHT22;34289;48.572;13.378;2022-12-22T17:13:33;4.20;99.90
48488;DHT22;34289;48.572;13.378;2022-12-22T17:15:59;4.30;99.90
48488;DHT22;34289;48.572;13.378;2022-12-22T17:18:27;3.90;99.90
48488;DHT22;34289;48.572;13.378;2022-12-22T17:20:57;4.00;99.90
48488;DHT22;34289;48.572;13.378;2022-12-22T17:23:48;4.00;99.90
48488;DHT22;34289;48.572;13.378;2022-12-22T17:26:16;4.00;99.90
48488;DHT22;34289;48.572;13.378;2022-12-22T17:28:43;3.90;99.90
48488;DHT22;34289;48.572;13.378;2022-12-22T17:31:20;4.70;99.90
48488;DHT22;34289;48.572;13.378;2022-12-22T17:33:46;3.80;99.90
48488;DHT22;34289;48.572;13.378;2022-12-22T17:38:50;3.70;99.90
48488;DHT22;34289;48.572;13.378;2022-12-22T17:41:16;3.80;99.90
48488;DHT22;34289;48.572;13.378;2022-12-22T17:43:42;3.90;99.90
48488;DHT22;34289;48.572;13.378;2022-12-22T17:46:18;3.80;99.90
48488;DHT22;34289;48.572;13.378;2022-12-22T17:48:45;3.90;99.90
48488;DHT22;34289;48.572;13.378;2022-12-22T17:51:18;3.90;99.90
48488;DHT22;34289;48.572;13.378;2022-12-22T17:53:46;3.80;99.90
48488;DHT22;34289;48.572;13.378;2022-12-22T17:56:19;3.70;99.90
48488;DHT22;34289;48.572;13.378;2022-12-22T17:58:49;3.70;99.90
48488;DHT22;34289;48.572;13.378;2022-12-22T18:01:20;3.70;99.90
48488;DHT22;34289;48.572;13.378;2022-12-22T18:03:46;2.00;99.90
48488;DHT22;34289;48.572;13.378;2022-12-22T18:06:13;2.50;99.90
48488;DHT22;34289;48.572;13.378;2022-12-22T18:08:39;3.80;99.90
48488;DHT22;34289;48.572;13.378;2022-12-22T18:11:05;3.70;99.90
48488;DHT22;34289;48.572;13.378;2022-12-22T18:13:31;5.10;99.90
48488;DHT22;34289;48.572;13.378;2022-12-22T18:15:57;3.60;99.90
48488;DHT22;34289;48.572;13.378;2022-12-22T18:18:22;3.60;99.90